Date,TemperatureHighF,TemperatureAvgF,TemperatureLowF,DewpointHighF,DewpointAvgF,DewpointLowF,HumidityHigh,HumidityAvg,HumidityLow,PressureMaxIn,PressureMinIn,WindSpeedMaxMPH,WindSpeedAvgMPH,GustSpeedMaxMPH,PrecipitationSumIn
2013-5-1,81.9,74.0,68.2,67.9,64.7,62.6,86,74,57,30.00,29.81,12,5,12,0.00
2013-5-2,73.6,54.0,45.5,63.6,45.8,36.6,81,74,67,30.40,29.97,11,4,11,0.00
2013-5-3,67.1,54.2,40.6,38.0,33.5,28.7,76,50,25,30.38,30.06,9,3,9,0.00
2013-5-4,74.3,61.4,45.7,40.1,35.0,30.0,72,42,21,30.06,29.93,8,2,8,0.00
2013-5-5,72.5,65.8,50.4,60.9,40.8,30.8,72,43,23,30.21,30.05,10,2,10,0.00
2013-5-6,76.5,64.6,52.2,55.5,51.2,45.8,80,63,45,30.17,30.05,5,0,5,0.00
2013-5-7,84.7,72.7,59.9,56.4,55.0,52.8,79,56,36,30.13,29.96,11,3,11,0.00
2013-5-8,84.7,76.1,66.6,64.5,57.7,53.8,70,54,43,30.04,29.90,15,6,15,0.00
2013-5-9,77.0,70.0,67.1,66.4,63.2,56.7,91,80,53,30.04,29.87,14,4,14,0.32
2013-5-10,81.1,72.6,66.7,66.3,63.6,58.5,93,75,54,30.10,29.91,7,1,7,0.00
2013-5-11,81.1,71.7,63.0,59.2,53.9,47.0,81,56,32,30.22,30.07,11,2,11,0.00
2013-5-12,78.3,69.8,61.9,55.2,45.3,38.9,64,43,28,30.32,30.19,10,3,10,0.00
2013-5-13,66.7,63.5,60.8,45.8,44.4,43.2,56,50,46,30.23,30.20,5,3,5,0.00
2013-5-20,84.6,73.0,-24.3,71.8,60.9,-32.6,70,66,63,29.75,29.67,30,8,30,0.00
2013-5-21,82.2,73.6,63.1,72.0,66.6,58.2,85,79,66,29.91,29.69,22,5,22,0.25
2013-5-22,87.3,71.9,59.0,64.5,59.9,55.1,89,69,40,30.00,29.87,8,3,8,0.00
2013-5-23,84.9,78.1,72.7,73.2,70.0,64.1,90,77,65,30.10,29.90,14,5,14,0.00
2013-5-24,83.7,77.7,68.9,73.8,70.3,64.1,87,78,65,30.22,29.99,15,4,15,0.22
2013-5-25,81.5,73.5,68.7,73.4,68.5,64.9,90,85,72,30.20,30.07,13,4,13,0.28
2013-5-26,87.1,79.0,72.7,73.5,71.2,69.6,91,78,62,30.12,29.96,17,6,17,0.00
2013-5-27,86.9,79.0,72.7,72.0,69.7,67.6,85,74,60,30.03,29.83,16,7,16,0.00
2013-5-28,85.5,79.7,73.4,70.6,69.0,67.4,84,71,59,29.94,29.78,24,8,24,0.00
2013-5-29,84.4,77.4,74.7,73.8,70.6,68.1,88,80,68,29.87,29.74,24,10,24,0.32
2013-5-30,89.1,80.8,74.7,74.7,72.1,70.0,86,76,60,29.84,29.73,22,8,22,0.00
2013-5-31,90.3,82.8,77.2,75.7,73.6,71.4,86,75,59,29.88,29.72,16,7,16,0.00